createdAt,value
2024-05-09T00:02:15.970Z,102805.88
2024-05-09T00:04:46.578Z,102801.00
2024-05-09T00:07:17.159Z,102800.09
2024-05-09T00:09:48.030Z,102799.78
2024-05-09T00:12:21.317Z,102770.47
2024-05-09T00:14:51.650Z,102798.66
2024-05-09T00:17:22.139Z,102793.66
2024-05-09T00:19:52.671Z,102790.03
2024-05-09T00:22:23.110Z,102791.13
2024-05-09T00:24:53.492Z,102789.34
2024-05-09T00:27:26.577Z,102789.91
2024-05-09T00:29:57.044Z,102782.03
2024-05-09T00:32:27.613Z,102776.81
2024-05-09T00:34:58.172Z,102781.44
2024-05-09T00:37:28.653Z,102776.88
2024-05-09T00:39:59.065Z,102785.56
2024-05-09T00:42:32.225Z,102783.31
2024-05-09T00:45:02.576Z,102778.88
2024-05-09T00:47:33.546Z,102789.69
2024-05-09T00:50:09.769Z,102780.56
2024-05-09T00:52:43.496Z,102782.22
2024-05-09T00:55:13.960Z,102779.09
2024-05-09T00:57:47.958Z,102753.59
2024-05-09T01:00:26.810Z,102776.22
2024-05-09T01:03:02.792Z,102764.28
2024-05-09T01:05:34.927Z,102771.53
2024-05-09T01:08:06.113Z,102769.16
2024-05-09T01:10:36.875Z,102773.59
2024-05-09T01:13:10.324Z,102767.47
2024-05-09T01:15:40.597Z,102774.00
2024-05-09T01:18:13.875Z,102761.94
2024-05-09T01:20:45.642Z,102748.41
2024-05-09T01:23:18.988Z,102767.16
2024-05-09T01:25:49.662Z,102773.59
2024-05-09T01:28:20.186Z,102778.91
2024-05-09T01:30:50.648Z,102777.56
2024-05-09T01:33:21.220Z,102771.38
2024-05-09T01:35:51.774Z,102772.66
2024-05-09T01:38:24.948Z,102760.66
2024-05-09T01:40:55.493Z,102758.78
2024-05-09T01:43:26.039Z,102756.16
2024-05-09T01:45:56.486Z,102733.91
2024-05-09T01:48:27.076Z,102750.16
2024-05-09T01:50:57.626Z,102756.13
2024-05-09T01:53:30.871Z,102760.50
2024-05-09T01:56:01.318Z,102756.13
2024-05-09T01:58:33.053Z,102754.50
2024-05-09T02:01:03.650Z,102751.00
2024-05-09T02:03:34.197Z,102737.25
2024-05-09T02:06:04.935Z,102756.63
2024-05-09T02:08:38.230Z,102754.06
2024-05-09T02:11:08.988Z,102751.38
2024-05-09T02:13:39.429Z,102758.31
2024-05-09T02:16:14.066Z,102762.91
2024-05-09T02:18:44.655Z,102762.97
2024-05-09T02:21:15.465Z,102757.50
2024-05-09T02:23:48.499Z,102762.88
2024-05-09T02:26:19.049Z,102755.94
2024-05-09T02:28:49.526Z,102760.25
2024-05-09T02:31:20.115Z,102761.13
2024-05-09T02:33:48.224Z,102756.84
2024-05-09T02:36:18.886Z,102759.63
2024-05-09T02:38:49.292Z,102764.03
2024-05-09T02:41:19.773Z,102755.69
2024-05-09T02:43:47.626Z,102762.41
2024-05-09T02:46:17.996Z,102753.06
2024-05-09T02:48:46.021Z,102759.91
2024-05-09T02:51:16.471Z,102759.13
2024-05-09T02:53:44.295Z,102763.44
2024-05-09T02:56:17.422Z,102758.16
2024-05-09T02:58:45.320Z,102755.53
2024-05-09T03:01:15.833Z,102762.41
2024-05-09T03:03:45.489Z,102758.06
2024-05-09T03:06:15.971Z,102753.75
2024-05-09T03:08:45.125Z,102758.09
2024-05-09T03:11:26.479Z,102761.66
2024-05-09T03:13:55.124Z,102752.16
2024-05-09T03:16:25.658Z,102753.88
2024-05-09T03:18:54.769Z,102750.44
2024-05-09T03:21:25.467Z,102753.00
2024-05-09T03:23:53.362Z,102759.06
2024-05-09T03:26:26.943Z,102756.53
2024-05-09T03:28:54.848Z,102758.31
2024-05-09T03:31:25.321Z,102755.72
2024-05-09T03:33:53.314Z,102753.94
2024-05-09T03:36:23.908Z,102754.03
2024-05-09T03:38:54.291Z,102755.91
2024-05-09T03:41:27.470Z,102755.91
2024-05-09T03:43:58.050Z,102755.91
2024-05-09T03:46:28.540Z,102757.75
2024-05-09T03:48:57.440Z,102753.28
2024-05-09T03:51:27.843Z,102756.91
2024-05-09T03:53:55.641Z,102753.44
2024-05-09T03:56:28.681Z,102756.06
2024-05-09T03:58:57.506Z,102768.09
2024-05-09T04:01:30.046Z,102758.50
2024-05-09T04:03:58.159Z,102761.31
2024-05-09T04:06:29.442Z,102761.97
2024-05-09T04:08:57.352Z,102755.00
2024-05-09T04:11:30.589Z,102752.16
2024-05-09T04:13:58.304Z,102761.44
2024-05-09T04:16:28.769Z,102756.63
2024-05-09T04:18:56.772Z,102760.69
2024-05-09T04:21:27.203Z,102763.38
2024-05-09T04:23:55.114Z,102761.88
2024-05-09T04:26:25.655Z,102760.13
2024-05-09T04:28:56.165Z,102761.81
2024-05-09T04:31:26.624Z,102760.09
2024-05-09T04:33:54.583Z,102765.19
2024-05-09T04:36:25.096Z,102765.06
2024-05-09T04:38:52.899Z,102771.59
2024-05-09T04:41:23.656Z,102768.84
2024-05-09T04:43:51.735Z,102754.06
2024-05-09T04:46:24.763Z,102769.53
2024-05-09T04:48:53.679Z,102752.19
2024-05-09T04:51:24.192Z,102754.81
2024-05-09T04:53:52.073Z,102763.56
2024-05-09T04:56:22.563Z,102767.69
2024-05-09T04:58:50.487Z,102765.03
2024-05-09T05:01:21.068Z,102758.91
2024-05-09T05:03:51.727Z,102765.75
2024-05-09T05:06:22.672Z,102771.72
2024-05-09T05:08:50.549Z,102764.59
2024-05-09T05:11:21.142Z,102772.25
2024-05-09T05:13:49.154Z,102775.72
2024-05-09T05:16:19.565Z,102772.94
2024-05-09T05:18:47.469Z,102774.34
2024-05-09T05:21:20.806Z,102768.94
2024-05-09T05:23:48.603Z,102774.19
2024-05-09T05:26:20.574Z,102770.72
2024-05-09T05:28:48.519Z,102768.56
2024-05-09T05:31:19.026Z,102760.50
2024-05-09T05:33:48.643Z,102771.94
2024-05-09T05:36:21.934Z,102773.09
2024-05-09T05:38:49.917Z,102766.78
2024-05-09T05:41:20.385Z,102761.81
2024-05-09T05:43:48.282Z,102764.59
2024-05-09T05:46:18.698Z,102773.00
2024-05-09T05:48:46.613Z,102763.88
2024-05-09T05:51:17.272Z,102760.25
2024-05-09T05:53:47.927Z,102762.88
2024-05-09T05:56:18.472Z,102762.91
2024-05-09T05:58:46.374Z,102758.72
2024-05-09T06:01:16.936Z,102763.19
2024-05-09T06:03:44.969Z,102763.25
2024-05-09T06:06:16.432Z,102767.22
2024-05-09T06:08:44.407Z,102766.38
2024-05-09T06:11:17.605Z,102764.09
2024-05-09T06:13:45.429Z,102757.94
2024-05-09T06:16:15.980Z,102761.09
2024-05-09T06:18:43.894Z,102763.16
2024-05-09T06:21:14.741Z,102761.28
2024-05-09T06:23:46.109Z,102751.16
2024-05-09T06:26:19.528Z,102747.34
2024-05-09T06:28:47.105Z,102758.56
2024-05-09T06:31:17.481Z,102750.63
2024-05-09T06:33:45.395Z,102739.22
2024-05-09T06:36:16.209Z,102747.97
2024-05-09T06:38:44.223Z,102743.03
2024-05-09T06:41:14.664Z,102747.53
2024-05-09T06:43:45.151Z,102744.22
2024-05-09T06:46:15.701Z,102735.16
2024-05-09T06:48:43.746Z,102739.69
2024-05-09T06:51:14.284Z,102740.72
2024-05-09T06:53:42.262Z,102737.53
2024-05-09T06:56:12.913Z,102735.72
2024-05-09T06:58:40.853Z,102739.94
2024-05-09T07:01:13.942Z,102739.00
2024-05-09T07:03:41.977Z,102730.63
2024-05-09T07:06:12.565Z,102727.72
2024-05-09T07:08:41.337Z,102726.25
2024-05-09T07:11:11.970Z,102730.56
2024-05-09T07:13:39.863Z,102728.09
2024-05-09T07:16:13.069Z,102719.09
2024-05-09T07:18:41.199Z,102723.56
2024-05-09T07:21:11.819Z,102688.56
2024-05-09T07:23:42.490Z,102709.66
2024-05-09T07:26:14.278Z,102706.66
2024-05-09T07:28:42.839Z,102721.97
2024-05-09T07:31:16.501Z,102717.56
2024-05-09T07:33:44.502Z,102722.53
2024-05-09T07:36:15.029Z,102722.00
2024-05-09T07:38:45.590Z,102719.66
2024-05-09T07:41:14.499Z,102720.06
2024-05-09T07:43:45.180Z,102720.94
2024-05-09T07:47:14.401Z,102714.72
2024-05-09T07:54:13.401Z,102718.88
2024-05-09T07:56:44.206Z,102713.13
2024-05-09T07:59:12.255Z,102707.78
2024-05-09T08:01:45.504Z,102707.13
2024-05-09T08:04:13.551Z,102711.00
2024-05-09T08:06:44.140Z,102706.66
2024-05-09T08:09:16.769Z,102707.38
2024-05-09T08:11:49.988Z,102705.06
2024-05-09T08:14:17.921Z,102704.88
2024-05-09T08:16:50.906Z,102684.75
2024-05-09T08:19:18.909Z,102692.59
2024-05-09T08:21:49.451Z,102694.06
2024-05-09T08:24:17.190Z,102699.56
2024-05-09T08:26:47.640Z,102701.28
2024-05-09T08:29:15.559Z,102702.84
2024-05-09T08:31:46.106Z,102702.19
2024-05-09T08:34:17.020Z,102694.81
2024-05-09T08:36:47.730Z,102697.91
2024-05-09T08:39:15.771Z,102695.91
2024-05-09T08:41:52.358Z,102685.47
2024-05-09T08:44:21.218Z,102691.44
2024-05-09T08:46:54.498Z,102690.78
2024-05-09T08:49:26.476Z,102690.13
2024-05-09T08:51:57.263Z,102686.88
2024-05-09T08:54:25.222Z,102687.88
2024-05-09T08:56:55.957Z,102686.63
2024-05-09T08:59:34.047Z,102694.41
2024-05-09T09:02:05.395Z,102691.38
2024-05-09T09:04:40.536Z,102687.16
2024-05-09T09:07:11.093Z,102696.56
2024-05-09T09:09:43.657Z,102688.00
2024-05-09T09:12:15.090Z,102686.72
2024-05-09T09:14:42.903Z,102684.09
2024-05-09T09:17:17.189Z,102692.63
2024-05-09T09:19:47.780Z,102686.53
2024-05-09T09:22:19.830Z,102678.13
2024-05-09T09:24:47.708Z,102676.31
2024-05-09T09:27:18.486Z,102684.88
2024-05-09T09:29:46.234Z,102676.28
2024-05-09T09:32:16.654Z,102673.53
2024-05-09T09:34:44.745Z,102670.72
2024-05-09T09:37:23.797Z,102671.31
2024-05-09T09:39:51.967Z,102672.31
2024-05-09T09:42:26.080Z,102667.22
2024-05-09T09:45:03.791Z,102666.84
2024-05-09T09:47:39.932Z,102663.50
2024-05-09T09:50:14.283Z,102660.69
2024-05-09T09:52:51.804Z,102660.88
2024-05-09T09:55:22.012Z,102654.53
2024-05-09T09:57:52.643Z,102668.41
2024-05-09T10:00:27.272Z,102665.72
2024-05-09T10:03:03.073Z,102669.47
2024-05-09T10:05:33.833Z,102654.63
2024-05-09T10:08:09.431Z,102653.63
2024-05-09T10:10:37.413Z,102650.44
2024-05-09T10:13:09.034Z,102660.06
2024-05-09T10:15:45.460Z,102658.00
2024-05-09T10:18:16.516Z,102653.72
2024-05-09T10:20:45.407Z,102656.75
2024-05-09T10:23:29.243Z,102654.28
2024-05-09T10:25:58.295Z,102657.38
2024-05-09T10:28:29.758Z,102654.69
2024-05-09T10:31:07.804Z,102658.16
2024-05-09T10:33:40.050Z,102664.56
2024-05-09T10:36:14.352Z,102658.53
2024-05-09T10:38:47.652Z,102652.00
2024-05-09T10:41:16.814Z,102657.91
2024-05-09T10:43:47.720Z,102640.66
2024-05-09T10:46:16.501Z,102653.91
2024-05-09T10:48:48.620Z,102653.47
2024-05-09T10:51:18.725Z,102645.06
2024-05-09T10:53:52.692Z,102646.72
2024-05-09T10:56:20.548Z,102645.00
2024-05-09T10:58:54.781Z,102635.84
2024-05-09T11:01:22.944Z,102636.16
2024-05-09T11:03:55.041Z,102645.69
2024-05-09T11:06:23.423Z,102642.34
2024-05-09T11:08:56.705Z,102637.88
2024-05-09T11:11:25.190Z,102642.59
2024-05-09T11:13:55.612Z,102636.50
2024-05-09T11:16:24.560Z,102636.44
2024-05-09T11:18:59.084Z,102630.31
2024-05-09T11:21:27.338Z,102607.63
2024-05-09T11:24:00.450Z,102627.63
2024-05-09T11:26:29.689Z,102622.66
2024-05-09T11:29:00.196Z,102616.44
2024-05-09T11:31:28.212Z,102618.13
2024-05-09T11:33:58.705Z,102617.94
2024-05-09T11:36:26.578Z,102618.91
2024-05-09T11:38:57.128Z,102614.38
2024-05-09T11:41:27.602Z,102619.34
2024-05-09T11:43:58.088Z,102612.94
2024-05-09T11:46:26.056Z,102610.16
2024-05-09T11:48:56.784Z,102610.50
2024-05-09T11:51:24.581Z,102603.50
2024-05-09T11:53:55.133Z,102605.06
2024-05-09T11:56:23.133Z,102608.72
2024-05-09T11:58:56.391Z,102608.31
2024-05-09T12:01:27.555Z,102599.22
2024-05-09T12:03:58.782Z,102599.75
2024-05-09T12:06:26.928Z,102574.41
2024-05-09T12:08:57.642Z,102594.69
2024-05-09T12:11:25.564Z,102594.50
2024-05-09T12:13:58.661Z,102590.34
2024-05-09T12:16:26.775Z,102590.28
2024-05-09T12:18:57.488Z,102597.59
2024-05-09T12:21:25.342Z,102597.06
2024-05-09T12:23:55.978Z,102590.22
2024-05-09T12:26:23.909Z,102582.66
2024-05-09T12:28:54.463Z,102582.81
2024-05-09T12:31:25.088Z,102573.69
2024-05-09T12:33:55.985Z,102571.16
2024-05-09T12:36:23.936Z,102586.06
2024-05-09T12:38:54.416Z,102570.41
2024-05-09T12:41:22.200Z,102578.00
2024-05-09T12:43:52.603Z,102573.00
2024-05-09T12:46:20.622Z,102568.00
2024-05-09T12:48:54.063Z,102577.81
2024-05-09T12:51:22.130Z,102562.22
2024-05-09T12:53:52.576Z,102565.78
2024-05-09T12:56:20.547Z,102570.75
2024-05-09T12:58:51.272Z,102575.38
2024-05-09T13:01:19.127Z,102567.78
2024-05-09T13:03:49.855Z,102562.28
2024-05-09T13:06:20.623Z,102559.84
2024-05-09T13:08:51.172Z,102563.53
2024-05-09T13:11:19.226Z,102562.25
2024-05-09T13:13:49.656Z,102561.50
2024-05-09T13:16:17.700Z,102570.56
2024-05-09T13:18:48.411Z,102565.31
2024-05-09T13:21:16.362Z,102571.66
2024-05-09T13:23:49.496Z,102569.25
2024-05-09T13:26:17.544Z,102569.84
2024-05-09T13:28:47.950Z,102577.00
2024-05-09T13:31:15.818Z,102575.09
2024-05-09T13:33:46.660Z,102577.69
2024-05-09T13:36:14.636Z,102577.91
2024-05-09T13:38:45.256Z,102574.06
2024-05-09T13:41:15.764Z,102574.44
2024-05-09T13:43:46.260Z,102579.63
2024-05-09T13:46:14.235Z,102578.53
2024-05-09T13:48:44.995Z,102583.53
2024-05-09T13:51:12.866Z,102569.81
2024-05-09T13:53:43.404Z,102573.97
2024-05-09T13:56:12.820Z,102555.28
2024-05-09T13:58:46.692Z,102561.72
2024-05-09T14:01:14.691Z,102553.94
2024-05-09T14:03:45.311Z,102557.06
2024-05-09T14:06:13.436Z,102550.16
2024-05-09T14:08:44.149Z,102542.75
2024-05-09T14:11:13.118Z,102544.25
2024-05-09T14:13:46.255Z,102548.84
2024-05-09T14:16:14.489Z,102534.75
2024-05-09T14:18:45.267Z,102537.91
2024-05-09T14:21:13.219Z,102542.69
2024-05-09T14:23:43.650Z,102537.28
2024-05-09T14:26:11.721Z,102531.63
2024-05-09T14:28:42.235Z,102528.66
2024-05-09T14:31:12.913Z,102532.34
2024-05-09T14:33:43.537Z,102525.31
2024-05-09T14:36:12.098Z,102524.50
2024-05-09T14:38:42.706Z,102519.44
2024-05-09T14:41:13.249Z,102504.22
2024-05-09T14:43:43.715Z,102514.22
2024-05-09T14:46:14.383Z,102506.94
2024-05-09T14:48:45.434Z,102510.31
2024-05-09T14:51:13.684Z,102506.78
2024-05-09T14:53:44.148Z,102507.91
2024-05-09T14:56:12.156Z,102499.78
2024-05-09T14:58:42.727Z,102492.75
2024-05-09T15:01:10.557Z,102483.41
2024-05-09T15:03:43.928Z,102498.03
2024-05-09T15:06:12.186Z,102487.09
2024-05-09T15:08:42.707Z,102475.81
2024-05-09T15:11:10.715Z,102479.41
2024-05-09T15:13:41.261Z,102477.41
2024-05-09T15:16:09.212Z,102469.84
2024-05-09T15:18:42.216Z,102462.09
2024-05-09T15:21:14.178Z,102466.94
2024-05-09T15:23:45.005Z,102468.88
2024-05-09T15:26:13.072Z,102464.66
2024-05-09T15:28:43.942Z,102458.38
2024-05-09T15:31:11.779Z,102456.94
2024-05-09T15:33:42.769Z,102446.00
2024-05-09T15:36:13.545Z,102448.22
2024-05-09T15:38:44.025Z,102443.84
2024-05-09T15:41:13.279Z,102447.16
2024-05-09T15:43:43.779Z,102446.78
2024-05-09T15:46:11.883Z,102447.69
2024-05-09T15:48:44.821Z,102438.97
2024-05-09T15:51:15.593Z,102443.06
2024-05-09T15:53:46.078Z,102451.69
2024-05-09T15:56:13.997Z,102431.50
2024-05-09T15:58:44.549Z,102438.81
2024-05-09T16:01:14.487Z,102439.06
2024-05-09T16:03:45.188Z,102434.47
2024-05-09T16:06:16.234Z,102429.50
2024-05-09T16:08:46.667Z,102420.03
2024-05-09T16:11:17.054Z,102428.34
2024-05-09T16:13:47.830Z,102420.31
2024-05-09T16:16:16.011Z,102407.03
2024-05-09T16:18:46.601Z,102399.31
2024-05-09T16:21:17.088Z,102396.25
2024-05-09T16:23:47.653Z,102422.63
2024-05-09T16:26:15.610Z,102419.97
2024-05-09T16:28:46.171Z,102421.25
2024-05-09T16:31:14.213Z,102419.78
2024-05-09T16:33:45.261Z,102414.69
2024-05-09T16:36:13.440Z,102423.84
2024-05-09T16:38:46.595Z,102414.22
2024-05-09T16:41:15.574Z,102411.66
2024-05-09T16:43:46.015Z,102414.53
2024-05-09T16:46:14.528Z,102409.09
2024-05-09T16:48:45.726Z,102402.16
2024-05-09T16:51:13.795Z,102406.06
2024-05-09T16:53:46.891Z,102408.44
2024-05-09T16:56:14.864Z,102402.72
2024-05-09T16:58:45.666Z,102401.66
2024-05-09T17:01:13.665Z,102394.38
2024-05-09T17:03:44.363Z,102405.16
2024-05-09T17:06:12.398Z,102408.56
2024-05-09T17:08:43.785Z,102410.47
2024-05-09T17:11:15.572Z,102414.56
2024-05-09T17:13:48.216Z,102409.03
2024-05-09T17:16:18.872Z,102384.06
2024-05-09T17:18:50.549Z,102401.88
2024-05-09T17:21:18.918Z,102399.81
2024-05-09T17:23:51.317Z,102402.59
2024-05-09T17:26:22.030Z,102406.19
2024-05-09T17:28:52.553Z,102407.69
2024-05-09T17:31:20.439Z,102407.50
2024-05-09T17:33:51.141Z,102406.34
2024-05-09T17:36:19.946Z,102413.59
2024-05-09T17:38:50.415Z,102401.41
2024-05-09T17:41:18.276Z,102401.03
2024-05-09T17:43:51.394Z,102396.41
2024-05-09T17:46:19.450Z,102396.88
2024-05-09T17:48:50.005Z,102387.59
2024-05-09T17:51:17.841Z,102406.75
2024-05-09T17:53:48.412Z,102379.94
2024-05-09T17:56:16.323Z,102402.84
2024-05-09T17:58:48.981Z,102403.09
2024-05-09T18:01:19.734Z,102405.06
2024-05-09T18:03:50.777Z,102402.84
2024-05-09T18:06:18.822Z,102407.00
2024-05-09T18:08:49.361Z,102399.47
2024-05-09T18:11:17.636Z,102399.88
2024-05-09T18:13:48.423Z,102394.59
2024-05-09T18:16:19.277Z,102400.38
2024-05-09T18:18:50.364Z,102390.56
2024-05-09T18:21:18.283Z,102394.22
2024-05-09T18:23:52.088Z,102388.06
2024-05-09T18:26:20.152Z,102393.41
2024-05-09T18:28:50.642Z,102386.16
2024-05-09T18:31:21.184Z,102372.91
2024-05-09T18:33:51.921Z,102368.91
2024-05-09T18:36:20.308Z,102375.75
2024-05-09T18:38:50.970Z,102372.50
2024-05-09T18:41:20.488Z,102389.38
2024-05-09T18:43:51.318Z,102382.91
2024-05-09T18:46:21.836Z,102391.25
2024-05-09T18:48:52.470Z,102393.53
2024-05-09T18:51:21.237Z,102391.56
2024-05-09T18:53:52.441Z,102397.63
2024-05-09T18:56:20.216Z,102399.31
2024-05-09T18:58:50.783Z,102397.03
2024-05-09T19:01:18.733Z,102400.78
2024-05-09T19:03:51.950Z,102404.63
2024-05-09T19:06:22.771Z,102404.44
2024-05-09T19:08:55.034Z,102398.38
2024-05-09T19:11:22.890Z,102404.34
2024-05-09T19:13:53.425Z,102399.34
2024-05-09T19:16:21.481Z,102401.19
2024-05-09T19:18:55.705Z,102400.34
2024-05-09T19:21:23.673Z,102405.72
2024-05-09T19:23:55.545Z,102402.91
2024-05-09T19:26:23.622Z,102401.22
2024-05-09T19:28:55.414Z,102414.88
2024-05-09T19:31:23.505Z,102407.53
2024-05-09T19:33:56.719Z,102409.06
2024-05-09T19:36:24.571Z,102414.13
2024-05-09T19:38:54.998Z,102417.31
2024-05-09T19:41:23.009Z,102418.03
2024-05-09T19:43:53.449Z,102418.47
2024-05-09T19:46:21.397Z,102417.41
2024-05-09T19:48:52.170Z,102417.56
2024-05-09T19:51:22.694Z,102427.63
2024-05-09T19:53:55.130Z,102405.13
2024-05-09T19:56:23.053Z,102428.56
2024-05-09T19:58:54.162Z,102434.31
2024-05-09T20:01:22.025Z,102432.28
2024-05-09T20:03:53.124Z,102424.50
2024-05-09T20:06:26.259Z,102427.50
2024-05-09T20:08:58.288Z,102435.16
2024-05-09T20:11:26.628Z,102435.97
2024-05-09T20:13:58.497Z,102432.16
2024-05-09T20:16:26.377Z,102437.19
2024-05-09T20:18:57.149Z,102436.72
2024-05-09T20:21:27.721Z,102436.81
2024-05-09T20:23:58.156Z,102437.19
2024-05-09T20:26:28.115Z,102436.66
2024-05-09T20:28:59.682Z,102433.53
2024-05-09T20:31:27.601Z,102437.19
2024-05-09T20:33:58.310Z,102434.44
2024-05-09T20:36:28.763Z,102443.34
2024-05-09T20:38:59.198Z,102440.91
2024-05-09T20:41:27.703Z,102442.81
2024-05-09T20:44:00.649Z,102440.75
2024-05-09T20:46:28.625Z,102443.25
2024-05-09T20:48:59.253Z,102440.75
2024-05-09T20:51:30.547Z,102440.06
2024-05-09T20:54:01.008Z,102421.44
2024-05-09T20:56:28.812Z,102435.94
2024-05-09T20:59:00.099Z,102431.03
2024-05-09T21:01:27.954Z,102435.59
2024-05-09T21:03:58.594Z,102426.31
2024-05-09T21:06:26.455Z,102436.41
2024-05-09T21:08:59.857Z,102433.56
2024-05-09T21:11:27.641Z,102407.22
2024-05-09T21:13:58.098Z,102436.81
2024-05-09T21:16:26.014Z,102429.06
2024-05-09T21:18:56.588Z,102436.09
2024-05-09T21:21:24.465Z,102431.69
2024-05-09T21:23:54.862Z,102419.91
2024-05-09T21:26:25.639Z,102433.50
2024-05-09T21:28:56.036Z,102429.91
2024-05-09T21:31:23.903Z,102428.66
2024-05-09T21:33:54.707Z,102430.53
2024-05-09T21:36:22.757Z,102423.34
2024-05-09T21:38:53.140Z,102423.19
2024-05-09T21:41:21.393Z,102426.03
2024-05-09T21:43:54.511Z,102420.84
2024-05-09T21:46:22.412Z,102426.63
2024-05-09T21:48:52.987Z,102418.56
2024-05-09T21:51:20.863Z,102426.25
2024-05-09T21:53:51.588Z,102425.63
2024-05-09T21:56:19.372Z,102424.06
2024-05-09T21:58:49.852Z,102431.97
2024-05-09T22:01:20.390Z,102429.38
2024-05-09T22:03:51.122Z,102428.69
2024-05-09T22:06:19.120Z,102424.81
2024-05-09T22:08:49.559Z,102429.03
2024-05-09T22:11:17.387Z,102426.03
2024-05-09T22:13:47.733Z,102425.25
2024-05-09T22:16:15.556Z,102426.69
2024-05-09T22:18:49.250Z,102426.72
2024-05-09T22:21:17.231Z,102426.28
2024-05-09T22:23:47.644Z,102425.31
2024-05-09T22:26:15.497Z,102431.28
2024-05-09T22:28:46.539Z,102428.59
2024-05-09T22:31:14.408Z,102439.81
2024-05-09T22:33:47.124Z,102437.50
2024-05-09T22:36:18.392Z,102433.09
2024-05-09T22:38:48.838Z,102437.56
2024-05-09T22:41:16.660Z,102430.16
2024-05-09T22:43:47.098Z,102438.06
2024-05-09T22:46:17.661Z,102425.78
2024-05-09T22:48:45.566Z,102427.09
2024-05-09T22:51:16.217Z,102434.03
2024-05-09T22:53:46.950Z,102428.78
2024-05-09T22:56:17.871Z,102427.09
2024-05-09T22:58:45.847Z,102432.19
2024-05-09T23:01:17.739Z,102425.19
2024-05-09T23:03:45.887Z,102419.22
2024-05-09T23:06:16.439Z,102427.22
2024-05-09T23:08:46.932Z,102425.22
2024-05-09T23:11:17.806Z,102430.75
2024-05-09T23:13:45.890Z,102434.63
2024-05-09T23:16:16.477Z,102426.28
2024-05-09T23:18:44.406Z,102429.41
2024-05-09T23:21:15.016Z,102430.78
2024-05-09T23:23:42.800Z,102428.22
2024-05-09T23:26:15.975Z,102438.56
2024-05-09T23:28:43.919Z,102431.66
2024-05-09T23:31:14.407Z,102436.25
2024-05-09T23:33:45.793Z,102426.72
2024-05-09T23:36:16.630Z,102428.53
2024-05-09T23:38:44.548Z,102425.44
2024-05-09T23:41:17.543Z,102421.69
2024-05-09T23:43:45.379Z,102428.66
2024-05-09T23:46:15.910Z,102419.28
2024-05-09T23:48:43.953Z,102421.91
2024-05-09T23:51:14.404Z,102423.72
2024-05-09T23:53:44.931Z,102425.69
2024-05-09T23:56:21.553Z,102430.91
2024-05-09T23:58:49.398Z,102429.28
